Time;durP1;ratioP1;P1;durP2;ratioP2;P2;SDS_P1;SDS_P2;PMS_P1;PMS_P2;Temp;Humidity;BMP_temperature;BMP_pressure;BME280_temperature;BME280_humidity;BME280_pressure;Samples;Min_cycle;Max_cycle;Signal;HPM_P1;HPM_P2
2023/03/31 00:00:42;;;;;;;;;;;;;;;-140.72;100.00;52957.03;5076119;28;19916;-68
2023/03/31 00:03:09;;;;;;;;;;;;;;;-140.72;100.00;52930.66;5075131;28;19917;-68
2023/03/31 00:05:36;;;;;;;;;;;;;;;-140.72;100.00;52942.81;5075990;28;20011;-68
2023/03/31 00:08:01;;;;;;;;;;;;;;;-140.72;100.00;52940.78;5067532;28;19916;-68
2023/03/31 00:10:28;;;;;;;;;;;;;;;-140.72;100.00;52926.59;5075431;28;19916;-68
2023/03/31 00:12:53;;;;;;;;;;;;;;;-140.72;100.00;52971.22;5071498;28;20015;-70
2023/03/31 00:15:19;;;;;;;;;;;;;;;-140.72;100.00;52932.66;5074907;28;19982;-68
2023/03/31 00:17:46;;;;;;;;;;;;;;;-140.72;100.00;52910.34;5054003;28;19920;-69
2023/03/31 00:20:11;;;;;;;;;;;;;;;-140.72;100.00;52946.88;5074850;28;20295;-69
2023/03/31 00:22:37;;;;;;;;;;;;;;;-140.72;100.00;52959.06;5074418;28;19925;-69
2023/03/31 00:25:03;;;;;;;;;;;;;;;-140.72;100.00;52957.03;5076267;28;19916;-67
2023/03/31 00:27:28;;;;;;;;;;;;;;;-140.72;100.00;52957.03;5057537;28;20390;-69
2023/03/31 00:29:54;;;;;;;;;;;;;;;-140.72;100.00;52934.69;5075075;28;19970;-70
2023/03/31 00:32:19;;;;;;;;;;;;;;;-140.72;100.00;52955.00;5070267;28;19925;-70
2023/03/31 00:34:45;;;;;;;;;;;;;;;-140.72;100.00;52979.34;5074753;28;19917;-70
2023/03/31 00:37:13;;;;;;;;;;;;;;;-140.72;100.00;52977.31;5073689;28;19959;-70
2023/03/31 00:39:39;;;;;;;;;;;;;;;-140.72;100.00;52936.72;5056819;28;19927;-70
2023/03/31 00:42:04;;;;;;;;;;;;;;;-140.72;100.00;52944.84;5056151;28;19920;-68
2023/03/31 00:44:32;;;;;;;;;;;;;;;-140.72;100.00;52942.81;5073619;28;19939;-68
2023/03/31 00:47:18;;;;;;;;;;;;;;;-140.72;100.00;52918.47;5064889;28;19916;-68
2023/03/31 00:49:45;;;;;;;;;;;;;;;-140.72;100.00;52908.31;5073207;28;19978;-68
2023/03/31 00:52:29;;;;;;;;;;;;;;;-140.72;100.00;52914.41;5063066;28;19916;-67
2023/03/31 00:54:57;;;;;;;;;;;;;;;-140.72;100.00;52910.34;5073990;28;19962;-68
2023/03/31 00:57:24;;;;;;;;;;;;;;;-140.72;100.00;52959.06;5073535;28;19948;-68
2023/03/31 01:00:10;;;;;;;;;;;;;;;-140.72;100.00;52918.47;5049690;28;19917;-70
2023/03/31 01:02:40;;;;;;;;;;;;;;;-140.72;100.00;52959.06;5030110;28;19927;-68
2023/03/31 01:05:06;;;;;;;;;;;;;;;-140.72;100.00;52940.78;5051851;27;20290;-68
2023/03/31 01:07:36;;;;;;;;;;;;;;;-140.72;100.00;52936.72;5029797;28;20134;-68
2023/03/31 01:10:03;;;;;;;;;;;;;;;-140.72;100.00;52922.53;5053472;28;19921;-68
2023/03/31 01:12:30;;;;;;;;;;;;;;;-140.72;100.00;52977.31;5047392;28;19917;-67
2023/03/31 01:14:55;;;;;;;;;;;;;;;-140.72;100.00;52946.88;5029566;28;19924;-68
2023/03/31 01:17:21;;;;;;;;;;;;;;;-140.72;100.00;52940.78;5047374;28;19917;-68
2023/03/31 01:20:11;;;;;;;;;;;;;;;-140.72;100.00;52934.69;5028978;28;20375;-68
2023/03/31 01:22:58;;;;;;;;;;;;;;;-140.72;100.00;52908.31;5046762;28;19964;-68
2023/03/31 01:25:26;;;;;;;;;;;;;;;-140.72;100.00;52981.38;5046674;28;19924;-68
2023/03/31 01:34:32;;;;;;;;;;;;;;;-140.72;100.00;52914.41;5041326;28;19920;-68
2023/03/31 01:37:14;;;;;;;;;;;;;;;-140.72;100.00;52952.97;5027483;28;19917;-68
2023/03/31 01:39:42;;;;;;;;;;;;;;;-140.72;100.00;52971.22;5049187;28;20003;-68
2023/03/31 01:48:22;;;;;;;;;;;;;;;-140.72;100.00;52950.94;5036938;28;19923;-68
2023/03/31 01:50:53;;;;;;;;;;;;;;;-140.72;100.00;52989.50;5060679;27;19985;-68
2023/03/31 01:53:42;;;;;;;;;;;;;;;-140.72;100.00;52955.00;5046569;28;19917;-68
2023/03/31 01:56:07;;;;;;;;;;;;;;;-140.72;100.00;52946.88;5040781;28;20368;-68
2023/03/31 01:58:37;;;;;;;;;;;;;;;-140.72;100.00;52938.75;5043995;27;19921;-68
2023/03/31 02:01:14;;;;;;;;;;;;;;;-140.72;100.00;52981.38;5037364;28;20011;-68
2023/03/31 02:03:45;;;;;;;;;;;;;;;-140.72;100.00;52946.88;5034901;28;19917;-68
2023/03/31 02:06:13;;;;;;;;;;;;;;;-140.72;100.00;52942.81;5039884;28;19942;-67
2023/03/31 02:08:41;;;;;;;;;;;;;;;-140.72;100.00;52959.06;5035823;28;19924;-67
2023/03/31 02:11:06;;;;;;;;;;;;;;;-140.72;100.00;52944.84;5034533;28;19924;-68
2023/03/31 02:13:33;;;;;;;;;;;;;;;-140.72;100.00;52959.06;5031922;28;20016;-69
2023/03/31 02:16:01;;;;;;;;;;;;;;;-140.72;100.00;52971.22;5033511;28;20291;-68
2023/03/31 02:18:36;;;;;;;;;;;;;;;-140.72;100.00;52948.91;5033749;28;20497;-67
2023/03/31 02:21:03;;;;;;;;;;;;;;;-140.72;100.00;52955.00;5015868;28;19945;-67
2023/03/31 02:23:31;;;;;;;;;;;;;;;-140.72;100.00;52983.41;5019632;28;20015;-67
2023/03/31 02:26:03;;;;;;;;;;;;;;;-140.72;100.00;52961.09;5038928;28;19917;-68
2023/03/31 02:28:29;;;;;;;;;;;;;;;-140.72;100.00;52983.41;5032963;28;20401;-67
2023/03/31 02:31:05;;;;;;;;;;;;;;;-140.72;100.00;52952.97;5032611;28;19917;-68
2023/03/31 02:33:32;;;;;;;;;;;;;;;-140.72;100.00;52985.44;5024122;28;19921;-67
2023/03/31 02:35:58;;;;;;;;;;;;;;;-140.72;100.00;52924.56;5030077;28;19964;-67
2023/03/31 02:38:23;;;;;;;;;;;;;;;-140.72;100.00;52955.00;5027418;28;19968;-67
2023/03/31 02:40:48;;;;;;;;;;;;;;;-140.72;100.00;52981.38;5018326;28;19960;-67
2023/03/31 02:43:14;;;;;;;;;;;;;;;-140.72;100.00;52995.59;5030327;28;19917;-68
2023/03/31 02:45:46;;;;;;;;;;;;;;;-140.72;100.00;52997.63;5030039;28;19918;-68
2023/03/31 02:48:23;;;;;;;;;;;;;;;-140.72;100.00;53015.88;5031301;28;19921;-68
2023/03/31 02:50:48;;;;;;;;;;;;;;;-140.72;100.00;52999.66;5038011;28;20368;-67
2023/03/31 02:53:26;;;;;;;;;;;;;;;-140.72;100.00;52977.31;5030620;28;19921;-67
2023/03/31 02:56:10;;;;;;;;;;;;;;;-140.72;100.00;52948.91;5025588;28;19922;-67
2023/03/31 02:58:54;;;;;;;;;;;;;;;-140.72;100.00;53005.72;5031548;28;19921;-67
2023/03/31 03:01:31;;;;;;;;;;;;;;;-140.72;100.00;52967.16;5046378;28;19959;-67
2023/03/31 03:04:12;;;;;;;;;;;;;;;-140.72;100.00;52979.34;5027902;28;20012;-67
2023/03/31 03:06:40;;;;;;;;;;;;;;;-140.72;100.00;52955.00;5032812;28;20286;-67
2023/03/31 03:09:24;;;;;;;;;;;;;;;-140.72;100.00;52989.50;5034371;28;19921;-68
2023/03/31 03:12:03;;;;;;;;;;;;;;;-140.72;100.00;52997.63;5023492;28;19917;-67
2023/03/31 03:14:51;;;;;;;;;;;;;;;-140.72;100.00;52979.34;5031982;28;19926;-67
2023/03/31 03:17:29;;;;;;;;;;;;;;;-140.72;100.00;52991.53;5026867;28;19940;-67
2023/03/31 03:19:55;;;;;;;;;;;;;;;-140.72;100.00;53003.69;5039295;27;19917;-67
2023/03/31 03:22:21;;;;;;;;;;;;;;;-140.72;100.00;53001.66;5017584;28;19917;-67
2023/03/31 03:24:46;;;;;;;;;;;;;;;-140.72;100.00;52999.66;5035407;28;20398;-67
2023/03/31 03:27:12;;;;;;;;;;;;;;;-140.72;100.00;52999.66;5029540;28;19962;-67
2023/03/31 03:29:37;;;;;;;;;;;;;;;-140.72;100.00;52999.66;5028031;28;19918;-67
2023/03/31 03:32:02;;;;;;;;;;;;;;;-140.72;100.00;52991.53;5031805;28;19952;-67
2023/03/31 03:34:27;;;;;;;;;;;;;;;-140.72;100.00;53009.78;5030878;28;20041;-67
2023/03/31 03:36:52;;;;;;;;;;;;;;;-140.72;100.00;52979.34;5031576;28;19924;-67
2023/03/31 03:39:18;;;;;;;;;;;;;;;-140.72;100.00;53011.81;5031443;28;19917;-67
2023/03/31 03:41:43;;;;;;;;;;;;;;;-140.72;100.00;52979.34;5031676;28;20026;-68
2023/03/31 03:44:08;;;;;;;;;;;;;;;-140.72;100.00;52993.56;5024693;28;19941;-67
2023/03/31 03:46:33;;;;;;;;;;;;;;;-140.72;100.00;52971.22;5023775;28;19918;-67
2023/03/31 03:48:59;;;;;;;;;;;;;;;-140.72;100.00;52940.78;5017753;28;20004;-67
2023/03/31 03:51:24;;;;;;;;;;;;;;;-140.72;100.00;52963.13;5043940;28;19917;-67
2023/03/31 03:53:49;;;;;;;;;;;;;;;-140.72;100.00;53011.81;5017465;28;20029;-68
2023/03/31 03:56:15;;;;;;;;;;;;;;;-140.72;100.00;52979.34;5031158;28;19924;-68
2023/03/31 03:58:40;;;;;;;;;;;;;;;-140.72;100.00;52981.38;5030084;28;20294;-68
2023/03/31 04:01:05;;;;;;;;;;;;;;;-140.72;100.00;52971.22;5029265;28;20359;-68
2023/03/31 04:03:31;;;;;;;;;;;;;;;-140.72;100.00;53026.03;5026110;28;19987;-67
2023/03/31 04:05:56;;;;;;;;;;;;;;;-140.72;100.00;52985.44;5024660;28;20336;-68
2023/03/31 04:08:22;;;;;;;;;;;;;;;-140.72;100.00;52955.00;5020704;28;19926;-68
2023/03/31 04:10:48;;;;;;;;;;;;;;;-140.72;100.00;52985.44;5031053;28;19946;-68
2023/03/31 04:13:17;;;;;;;;;;;;;;;-140.72;100.00;52948.91;5035134;28;19948;-67
2023/03/31 04:15:43;;;;;;;;;;;;;;;-140.72;100.00;52995.59;5025936;28;19962;-67
2023/03/31 04:19:11;;;;;;;;;;;;;;;-140.72;100.00;52965.16;5034247;28;20012;-67
2023/03/31 04:21:03;;;;;;;;;;;;;;;-140.72;100.00;52991.53;5028569;28;20053;-67
2023/03/31 04:23:30;;;;;;;;;;;;;;;-140.72;100.00;53019.94;5021645;28;20406;-67
2023/03/31 04:25:55;;;;;;;;;;;;;;;-140.72;100.00;52985.44;5026849;28;19921;-67
2023/03/31 04:28:20;;;;;;;;;;;;;;;-140.72;100.00;53003.69;5030930;28;20291;-67
2023/03/31 04:30:45;;;;;;;;;;;;;;;-140.72;100.00;53026.03;5036881;28;19943;-67
2023/03/31 04:33:14;;;;;;;;;;;;;;;-140.72;100.00;52995.59;5030206;28;20052;-67
2023/03/31 04:35:49;;;;;;;;;;;;;;;-140.72;100.00;53001.66;5029748;28;20383;-67
2023/03/31 04:38:21;;;;;;;;;;;;;;;-140.72;100.00;53003.69;5029389;28;19917;-67
2023/03/31 04:40:48;;;;;;;;;;;;;;;-140.72;100.00;52983.41;5030796;28;19920;-67
2023/03/31 04:43:13;;;;;;;;;;;;;;;-140.72;100.00;52983.41;5029629;28;19960;-69
2023/03/31 04:45:39;;;;;;;;;;;;;;;-140.72;100.00;52999.66;5032065;28;19932;-67
2023/03/31 04:48:04;;;;;;;;;;;;;;;-140.72;100.00;53015.88;5029766;28;19924;-69
2023/03/31 04:50:30;;;;;;;;;;;;;;;-140.72;100.00;53030.09;5020671;28;19924;-69
2023/03/31 04:53:07;;;;;;;;;;;;;;;-140.72;100.00;53007.75;5014048;28;19996;-68
2023/03/31 04:55:33;;;;;;;;;;;;;;;-140.72;100.00;53011.81;5023364;28;19947;-69
2023/03/31 04:57:59;;;;;;;;;;;;;;;-140.72;100.00;53024.00;5013975;28;19921;-68
2023/03/31 05:00:25;;;;;;;;;;;;;;;-140.72;100.00;53007.75;5022359;28;20374;-68
2023/03/31 05:02:50;;;;;;;;;;;;;;;-140.72;100.00;52985.44;5029369;28;20404;-69
2023/03/31 05:05:15;;;;;;;;;;;;;;;-140.72;100.00;52971.22;5023445;28;19964;-68
2023/03/31 05:07:41;;;;;;;;;;;;;;;-140.72;100.00;53052.41;5019231;28;20070;-68
2023/03/31 05:10:06;;;;;;;;;;;;;;;-140.72;100.00;52993.56;5038675;28;19940;-69
2023/03/31 05:12:35;;;;;;;;;;;;;;;-140.72;100.00;53017.91;5041168;28;19932;-68
2023/03/31 05:15:05;;;;;;;;;;;;;;;-140.72;100.00;53001.66;5023219;28;19918;-68
2023/03/31 05:17:32;;;;;;;;;;;;;;;-140.72;100.00;52981.38;5021137;28;20404;-68
2023/03/31 05:19:57;;;;;;;;;;;;;;;-140.72;100.00;53003.69;5030612;28;19974;-68
2023/03/31 05:22:22;;;;;;;;;;;;;;;-140.72;100.00;52985.44;5028737;28;19921;-68
2023/03/31 05:24:47;;;;;;;;;;;;;;;-140.72;100.00;52999.66;5085652;28;20377;-68
2023/03/31 05:27:13;;;;;;;;;;;;;;;-140.72;100.00;53019.94;5022042;28;19917;-68
2023/03/31 05:29:38;;;;;;;;;;;;;;;-140.72;100.00;52993.56;5025454;28;19956;-67
2023/03/31 05:32:03;;;;;;;;;;;;;;;-140.72;100.00;52995.59;5030404;28;19960;-68
2023/03/31 05:34:28;;;;;;;;;;;;;;;-140.72;100.00;53001.66;5021338;28;19917;-68
2023/03/31 05:36:54;;;;;;;;;;;;;;;-140.72;100.00;52995.59;5037065;28;19922;-67
2023/03/31 05:39:20;;;;;;;;;;;;;;;-140.72;100.00;53024.00;5024775;28;20364;-67
2023/03/31 05:41:45;;;;;;;;;;;;;;;-140.72;100.00;53028.06;5024788;28;19963;-68
2023/03/31 05:44:11;;;;;;;;;;;;;;;-140.72;100.00;52987.47;5017131;28;20016;-68
2023/03/31 05:46:36;;;;;;;;;;;;;;;-140.72;100.00;52991.53;5027110;28;20953;-68
2023/03/31 05:49:01;;;;;;;;;;;;;;;-140.72;100.00;53011.81;5038583;28;19932;-68
2023/03/31 05:51:27;;;;;;;;;;;;;;;-140.72;100.00;52987.47;5040284;28;19921;-68
2023/03/31 05:53:52;;;;;;;;;;;;;;;-140.72;100.00;53005.72;5031328;27;19924;-68
2023/03/31 05:56:17;;;;;;;;;;;;;;;-140.72;100.00;52991.53;5026160;28;20004;-68
2023/03/31 05:58:42;;;;;;;;;;;;;;;-140.72;100.00;52987.47;5029899;28;19922;-70
2023/03/31 06:01:09;;;;;;;;;;;;;;;-140.72;100.00;53003.69;5021546;28;19972;-69
2023/03/31 06:03:35;;;;;;;;;;;;;;;-140.72;100.00;53015.88;5039079;28;20294;-68
2023/03/31 06:06:01;;;;;;;;;;;;;;;-140.72;100.00;52977.31;5026959;28;20291;-69
2023/03/31 06:08:27;;;;;;;;;;;;;;;-140.72;100.00;52991.53;5027796;28;19925;-73
2023/03/31 06:10:52;;;;;;;;;;;;;;;-140.72;100.00;53019.94;5030738;28;19925;-69
2023/03/31 06:13:17;;;;;;;;;;;;;;;-140.72;100.00;52989.50;5032090;28;19961;-71
2023/03/31 06:15:42;;;;;;;;;;;;;;;-140.72;100.00;53013.84;5031151;28;19921;-72
2023/03/31 06:18:09;;;;;;;;;;;;;;;-140.72;100.00;53007.75;5028466;28;19929;-68
2023/03/31 06:20:35;;;;;;;;;;;;;;;-140.72;100.00;52991.53;5026821;28;20386;-69
2023/03/31 06:23:00;;;;;;;;;;;;;;;-140.72;100.00;53003.69;5022127;28;19917;-69
2023/03/31 06:25:25;;;;;;;;;;;;;;;-140.72;100.00;52989.50;5032089;28;19928;-70
2023/03/31 06:27:50;;;;;;;;;;;;;;;-140.72;100.00;52987.47;5032504;28;19961;-69
2023/03/31 06:30:16;;;;;;;;;;;;;;;-140.72;100.00;52975.28;5020200;28;19918;-69
2023/03/31 06:32:41;;;;;;;;;;;;;;;-140.72;100.00;52997.63;5027232;28;20409;-69
2023/03/31 06:35:06;;;;;;;;;;;;;;;-140.72;100.00;53040.22;5024075;28;20379;-69
2023/03/31 06:37:31;;;;;;;;;;;;;;;-140.72;100.00;53050.38;5032209;28;19986;-69
2023/03/31 06:39:57;;;;;;;;;;;;;;;-140.72;100.00;53017.91;5033274;28;19982;-69
2023/03/31 06:42:22;;;;;;;;;;;;;;;-140.72;100.00;52959.06;5019036;28;19917;-69
2023/03/31 06:44:47;;;;;;;;;;;;;;;-140.72;100.00;52965.16;5016825;28;19939;-69
2023/03/31 06:47:12;;;;;;;;;;;;;;;-140.72;100.00;52955.00;5019271;28;19917;-69
2023/03/31 06:49:38;;;;;;;;;;;;;;;-140.72;100.00;52997.63;5032859;28;19970;-69
2023/03/31 06:52:03;;;;;;;;;;;;;;;-140.72;100.00;52993.56;5028163;28;19943;-69
2023/03/31 06:54:28;;;;;;;;;;;;;;;-140.72;100.00;52977.31;5025320;28;19917;-69
2023/03/31 06:56:53;;;;;;;;;;;;;;;-140.72;100.00;52973.25;5029382;28;19943;-69
2023/03/31 06:59:20;;;;;;;;;;;;;;;-140.72;100.00;52975.28;5016990;28;20279;-70
2023/03/31 07:01:47;;;;;;;;;;;;;;;-140.72;100.00;52991.53;5027569;28;19921;-67
2023/03/31 07:04:12;;;;;;;;;;;;;;;-140.72;100.00;53011.81;5024650;28;20367;-68
2023/03/31 07:06:41;;;;;;;;;;;;;;;-140.72;100.00;52987.47;5031340;28;19936;-68
2023/03/31 07:09:07;;;;;;;;;;;;;;;-140.72;100.00;52967.16;5032293;28;19932;-68
2023/03/31 07:11:32;;;;;;;;;;;;;;;-140.72;100.00;53007.75;5042037;28;19966;-68
2023/03/31 07:14:00;;;;;;;;;;;;;;;-140.72;100.00;52983.41;5029959;28;19933;-70
2023/03/31 07:16:25;;;;;;;;;;;;;;;-140.72;100.00;52971.22;5025671;28;19974;-70
2023/03/31 07:18:53;;;;;;;;;;;;;;;-140.72;100.00;52989.50;5026463;28;19925;-70
2023/03/31 07:21:18;;;;;;;;;;;;;;;-140.72;100.00;52938.75;5035006;28;20342;-80
2023/03/31 07:23:44;;;;;;;;;;;;;;;-140.72;100.00;52944.84;5030639;28;19952;-71
2023/03/31 07:26:10;;;;;;;;;;;;;;;-140.72;100.00;52946.88;5028835;28;20516;-73
2023/03/31 07:28:59;;;;;;;;;;;;;;;-140.72;100.00;52969.19;5025657;28;20012;-70
2023/03/31 07:31:25;;;;;;;;;;;;;;;-140.72;100.00;52946.88;5026736;28;19917;-72
2023/03/31 07:34:08;;;;;;;;;;;;;;;-140.72;100.00;52957.03;5024830;28;19942;-73
2023/03/31 07:36:41;;;;;;;;;;;;;;;-140.72;100.00;52957.03;5020071;28;20011;-70
2023/03/31 07:39:07;;;;;;;;;;;;;;;-140.72;100.00;52955.00;5026122;28;19924;-71
2023/03/31 07:41:49;;;;;;;;;;;;;;;-140.72;100.00;52959.06;5025862;28;20008;-71
2023/03/31 07:44:16;;;;;;;;;;;;;;;-140.72;100.00;52936.72;5024081;28;19924;-71
2023/03/31 07:46:41;;;;;;;;;;;;;;;-140.72;100.00;52985.44;5012069;28;19974;-71
2023/03/31 07:49:08;;;;;;;;;;;;;;;-140.72;100.00;52959.06;5031133;28;19917;-71
2023/03/31 07:51:33;;;;;;;;;;;;;;;-140.72;100.00;52930.66;5022300;28;20021;-71
2023/03/31 07:53:59;;;;;;;;;;;;;;;-140.72;100.00;52955.00;5027154;28;20003;-71
2023/03/31 07:56:24;;;;;;;;;;;;;;;-140.72;100.00;52979.34;5026439;28;19921;-71
2023/03/31 07:58:51;;;;;;;;;;;;;;;-140.72;100.00;52910.34;5030103;28;19921;-70
2023/03/31 08:01:17;;;;;;;;;;;;;;;-140.72;100.00;52967.16;5031620;28;20424;-69
2023/03/31 08:03:47;;;;;;;;;;;;;;;-140.72;100.00;52942.81;5042051;28;19946;-69
2023/03/31 08:06:19;;;;;;;;;;;;;;;-140.72;100.00;52959.06;5029943;28;19944;-69
2023/03/31 08:08:44;;;;;;;;;;;;;;;-140.72;100.00;52948.91;5028891;28;19918;-71
2023/03/31 08:14:12;;;;;;;;;;;;;;;-140.72;100.00;52946.88;5013837;28;19956;-69
2023/03/31 08:16:37;;;;;;;;;;;;;;;-140.72;100.00;52952.97;5018178;28;19922;-68
2023/03/31 08:19:02;;;;;;;;;;;;;;;-140.72;100.00;52944.84;5025907;28;19924;-69
2023/03/31 08:21:28;;;;;;;;;;;;;;;-140.72;100.00;52928.63;5033597;28;19962;-69
2023/03/31 08:23:54;;;;;;;;;;;;;;;-140.72;100.00;52934.69;5031062;28;19962;-69
2023/03/31 08:26:20;;;;;;;;;;;;;;;-140.72;100.00;52910.34;5042568;27;20010;-69
2023/03/31 08:28:47;;;;;;;;;;;;;;;-140.72;100.00;52987.47;5024232;28;20360;-69
2023/03/31 08:31:15;;;;;;;;;;;;;;;-140.72;100.00;52946.88;5033491;28;19980;-68
2023/03/31 08:33:40;;;;;;;;;;;;;;;-140.72;100.00;52934.69;5028640;28;19946;-69
2023/03/31 08:36:09;;;;;;;;;;;;;;;-140.72;100.00;52940.78;5037904;28;19920;-69
2023/03/31 08:38:36;;;;;;;;;;;;;;;-140.72;100.00;52946.88;5031802;28;19920;-69
2023/03/31 08:41:02;;;;;;;;;;;;;;;-140.72;100.00;52963.13;5028002;28;20354;-69
2023/03/31 08:43:47;;;;;;;;;;;;;;;-140.72;100.00;52922.53;5027283;28;20005;-69
2023/03/31 08:46:14;;;;;;;;;;;;;;;-140.72;100.00;52924.56;5026483;28;19929;-69
2023/03/31 08:48:54;;;;;;;;;;;;;;;-140.72;100.00;52934.69;5035447;28;19921;-69
2023/03/31 08:51:27;;;;;;;;;;;;;;;-140.72;100.00;52914.41;5025523;28;19928;-69
2023/03/31 08:53:58;;;;;;;;;;;;;;;-140.72;100.00;52906.28;5026816;28;19921;-69
2023/03/31 08:56:25;;;;;;;;;;;;;;;-140.72;100.00;52914.41;5022225;28;19922;-70
2023/03/31 08:58:51;;;;;;;;;;;;;;;-140.72;100.00;52922.53;5030834;28;19974;-69
2023/03/31 09:01:22;;;;;;;;;;;;;;;-140.72;100.00;52912.38;5030442;28;19917;-69
2023/03/31 09:04:05;;;;;;;;;;;;;;;-140.72;100.00;52918.47;5018505;28;19917;-69
2023/03/31 09:06:38;;;;;;;;;;;;;;;-140.72;100.00;52894.13;5028423;28;19967;-69
2023/03/31 09:09:08;;;;;;;;;;;;;;;-140.72;100.00;52886.00;5019161;28;19917;-69
2023/03/31 09:11:45;;;;;;;;;;;;;;;-140.72;100.00;52869.75;5027400;28;19917;-69
2023/03/31 09:14:36;;;;;;;;;;;;;;;-140.72;100.00;52894.13;5029056;28;19917;-69
2023/03/31 09:17:05;;;;;;;;;;;;;;;-140.72;100.00;52922.53;5019548;28;19921;-69
2023/03/31 09:19:48;;;;;;;;;;;;;;;-140.72;100.00;52888.03;5027334;28;19918;-70
2023/03/31 09:22:19;;;;;;;;;;;;;;;-140.72;100.00;52877.88;5031398;28;19925;-69
2023/03/31 09:24:56;;;;;;;;;;;;;;;-140.72;100.00;52896.16;5027396;28;19974;-69
2023/03/31 09:27:23;;;;;;;;;;;;;;;-140.72;100.00;52922.53;5028131;28;19922;-69
2023/03/31 09:29:54;;;;;;;;;;;;;;;-140.72;100.00;52881.94;5024518;28;19921;-69
2023/03/31 09:32:21;;;;;;;;;;;;;;;-140.72;100.00;52896.16;5031506;28;20287;-69
2023/03/31 09:34:51;;;;;;;;;;;;;;;-140.72;100.00;52928.63;5025360;28;19921;-69
2023/03/31 09:37:16;;;;;;;;;;;;;;;-140.72;100.00;52853.53;5027536;28;19921;-69
2023/03/31 09:39:41;;;;;;;;;;;;;;;-140.72;100.00;52910.34;5027587;28;19929;-70
2023/03/31 09:42:09;;;;;;;;;;;;;;;-140.72;100.00;52942.81;5048029;28;19941;-70
2023/03/31 09:44:39;;;;;;;;;;;;;;;-140.72;100.00;52920.50;5033324;28;19921;-70
2023/03/31 09:47:09;;;;;;;;;;;;;;;-140.72;100.00;52886.00;5028122;28;19918;-72
2023/03/31 09:49:35;;;;;;;;;;;;;;;-140.72;100.00;52930.66;5038107;28;19925;-70
2023/03/31 09:52:03;;;;;;;;;;;;;;;-140.72;100.00;52940.78;5031432;28;20268;-71
2023/03/31 09:54:36;;;;;;;;;;;;;;;-140.72;100.00;52906.28;5033757;28;20012;-71
2023/03/31 10:00:10;;;;;;;;;;;;;;;-140.72;100.00;52910.34;5021728;28;20349;-73
2023/03/31 10:02:37;;;;;;;;;;;;;;;-140.72;100.00;52910.34;5033931;28;19929;-75
2023/03/31 10:11:26;;;;;;;;;;;;;;;-140.72;100.00;52886.00;5041755;28;19920;-71
2023/03/31 10:14:28;;;;;;;;;;;;;;;-140.72;100.00;52922.53;5038730;28;19931;-72
2023/03/31 10:17:03;;;;;;;;;;;;;;;-140.72;100.00;52883.97;5022145;28;19927;-71
2023/03/31 10:19:32;;;;;;;;;;;;;;;-140.72;100.00;52926.59;5018966;28;19917;-71
2023/03/31 10:22:15;;;;;;;;;;;;;;;-140.72;100.00;52916.44;5032111;28;20016;-71
2023/03/31 10:24:44;;;;;;;;;;;;;;;-140.72;100.00;52940.78;5023407;28;19921;-72
2023/03/31 10:27:28;;;;;;;;;;;;;;;-140.72;100.00;52948.91;5031583;28;19921;-71
2023/03/31 10:29:56;;;;;;;;;;;;;;;-140.72;100.00;52904.25;5025064;28;19925;-70
2023/03/31 10:32:28;;;;;;;;;;;;;;;-140.72;100.00;52906.28;5028861;28;20288;-72
2023/03/31 10:34:58;;;;;;;;;;;;;;;-140.72;100.00;52936.72;5013960;28;19967;-69
2023/03/31 10:37:27;;;;;;;;;;;;;;;-140.72;100.00;52942.81;5025912;28;19924;-69
2023/03/31 10:40:22;;;;;;;;;;;;;;;-140.72;100.00;52930.66;5022956;28;19943;-69
2023/03/31 10:42:56;;;;;;;;;;;;;;;-140.72;100.00;52912.38;5038662;28;19928;-71
2023/03/31 10:45:26;;;;;;;;;;;;;;;-140.72;100.00;52944.84;5030539;28;19955;-69
2023/03/31 10:48:02;;;;;;;;;;;;;;;-140.72;100.00;52946.88;5020927;28;19965;-72
2023/03/31 10:50:28;;;;;;;;;;;;;;;-140.72;100.00;52942.81;5035291;28;19923;-72
2023/03/31 10:53:00;;;;;;;;;;;;;;;-140.72;100.00;52940.78;5022153;28;19917;-70
2023/03/31 10:55:28;;;;;;;;;;;;;;;-140.72;100.00;52914.41;5027823;28;19917;-71
2023/03/31 10:58:16;;;;;;;;;;;;;;;-140.72;100.00;52932.66;5032873;28;19917;-77
2023/03/31 11:00:45;;;;;;;;;;;;;;;-140.72;100.00;52916.44;5031290;28;19921;-70
2023/03/31 11:03:13;;;;;;;;;;;;;;;-140.72;100.00;52914.41;5028424;28;19921;-73
2023/03/31 11:05:38;;;;;;;;;;;;;;;-140.72;100.00;52912.38;5033410;28;19921;-68
2023/03/31 11:08:18;;;;;;;;;;;;;;;-140.72;100.00;52906.28;5025095;28;19965;-69
2023/03/31 11:10:57;;;;;;;;;;;;;;;-140.72;100.00;52952.97;5025453;28;19958;-69
2023/03/31 11:13:28;;;;;;;;;;;;;;;-140.72;100.00;52912.38;5031325;28;20371;-69
2023/03/31 11:15:53;;;;;;;;;;;;;;;-140.72;100.00;52898.16;5023886;28;19922;-69
2023/03/31 11:24:26;;;;;;;;;;;;;;;-140.72;100.00;52936.72;5024321;28;20366;-69
2023/03/31 11:27:01;;;;;;;;;;;;;;;-140.72;100.00;52948.91;5024898;28;20345;-69
2023/03/31 11:29:32;;;;;;;;;;;;;;;-140.72;100.00;52952.97;5019537;28;19975;-69
2023/03/31 11:32:08;;;;;;;;;;;;;;;-140.72;100.00;52938.75;5025018;28;19982;-69
2023/03/31 11:35:08;;;;;;;;;;;;;;;-140.72;100.00;52934.69;5019675;28;20335;-69
2023/03/31 11:37:34;;;;;;;;;;;;;;;-140.72;100.00;52932.66;5030475;28;19921;-70
2023/03/31 11:40:04;;;;;;;;;;;;;;;-140.72;100.00;52910.34;5027373;28;19925;-70
2023/03/31 11:42:35;;;;;;;;;;;;;;;-140.72;100.00;52930.66;5029462;28;20015;-70
2023/03/31 11:45:12;;;;;;;;;;;;;;;-140.72;100.00;52938.75;5032739;28;20269;-74
2023/03/31 11:47:41;;;;;;;;;;;;;;;-140.72;100.00;52946.88;5029144;28;19921;-73
2023/03/31 11:50:10;;;;;;;;;;;;;;;-140.72;100.00;52928.63;5022802;28;19921;-73
2023/03/31 11:52:40;;;;;;;;;;;;;;;-140.72;100.00;52955.00;5031221;28;19921;-69
2023/03/31 11:55:15;;;;;;;;;;;;;;;-140.72;100.00;52932.66;5025841;28;19925;-72
2023/03/31 11:58:00;;;;;;;;;;;;;;;-140.72;100.00;52920.50;5029865;28;19925;-69
2023/03/31 12:00:27;;;;;;;;;;;;;;;-140.72;100.00;52906.28;5029337;28;19925;-71
2023/03/31 12:03:18;;;;;;;;;;;;;;;-140.72;100.00;52914.41;5018524;28;19939;-71
2023/03/31 12:06:15;;;;;;;;;;;;;;;-140.72;100.00;52934.69;5034911;28;19925;-70
2023/03/31 12:08:45;;;;;;;;;;;;;;;-140.72;100.00;52936.72;5022825;28;19923;-69
2023/03/31 12:11:31;;;;;;;;;;;;;;;-140.72;100.00;52948.91;5025462;28;19964;-69
2023/03/31 12:14:07;;;;;;;;;;;;;;;-140.72;100.00;52920.50;5019642;28;19925;-69
2023/03/31 12:16:32;;;;;;;;;;;;;;;-140.72;100.00;52942.81;5016397;28;19917;-70
2023/03/31 12:19:01;;;;;;;;;;;;;;;-140.72;100.00;52928.63;5033142;28;19918;-69
2023/03/31 12:21:28;;;;;;;;;;;;;;;-140.72;100.00;52944.84;5029777;28;19924;-76
2023/03/31 12:24:13;;;;;;;;;;;;;;;-140.72;100.00;52918.47;5024715;28;19928;-69
2023/03/31 12:26:58;;;;;;;;;;;;;;;-140.72;100.00;52942.81;5027517;28;19921;-69
2023/03/31 12:29:23;;;;;;;;;;;;;;;-140.72;100.00;52934.69;5027960;28;19936;-70
2023/03/31 12:32:00;;;;;;;;;;;;;;;-140.72;100.00;52967.16;5023975;28;20016;-70
2023/03/31 12:34:26;;;;;;;;;;;;;;;-140.72;100.00;52975.28;5030617;28;19933;-69
2023/03/31 12:37:17;;;;;;;;;;;;;;;-140.72;100.00;52934.69;5028934;28;19988;-69
2023/03/31 12:39:43;;;;;;;;;;;;;;;-140.72;100.00;52932.66;5025860;28;19917;-69
2023/03/31 12:42:20;;;;;;;;;;;;;;;-140.72;100.00;52957.03;5024009;28;19943;-71
2023/03/31 12:45:00;;;;;;;;;;;;;;;-140.72;100.00;52908.31;5028783;28;20335;-70
2023/03/31 12:47:49;;;;;;;;;;;;;;;-140.72;100.00;52930.66;5027464;27;19921;-70
2023/03/31 12:50:39;;;;;;;;;;;;;;;-140.72;100.00;52952.97;5023411;28;19921;-68
2023/03/31 12:53:18;;;;;;;;;;;;;;;-140.72;100.00;52959.06;5027451;28;19996;-72
2023/03/31 12:55:45;;;;;;;;;;;;;;;-140.72;100.00;52936.72;5021078;28;19925;-71
2023/03/31 12:58:28;;;;;;;;;;;;;;;-140.72;100.00;52930.66;5021859;28;19937;-70
2023/03/31 13:01:10;;;;;;;;;;;;;;;-140.72;100.00;52948.91;5025167;28;19922;-73
2023/03/31 13:03:46;;;;;;;;;;;;;;;-140.72;100.00;52922.53;5023918;28;19921;-73